Terminal Aerodrome Forecast
Issued by NWS

Home | Current Version | Previous Version | Text Only | Print | Product List | Glossary On
Versions: 1 2 3 4 5 6 7 8 9 10 11 12 13 14 15 16 17 18 19
006
FTUS41 KBGM 220520
TAFITH
TAF
KITH 220520Z 2206/2306 13005KT 2SM -DZ BR OVC008
      TEMPO 2206/2210 4SM BR SCT008 OVC015
     FM221800 16008KT 3SM -SHRA BR OVC015
     FM230000 16012KT 3SM -DZ BR SCT008 OVC012=

USA.gov is the U.S. government's official web portal to all federal, state and local government web resources and services.